Time;durP1;ratioP1;P1;durP2;ratioP2;P2;SDS_P1;SDS_P2;PMS_P1;PMS_P2;Temp;Humidity;BMP_temperature;BMP_pressure;BME280_temperature;BME280_humidity;BME280_pressure;Samples;Min_cycle;Max_cycle;Signal;HPM_P1;HPM_P2
2022/12/26 00:00:58;;;;;;;7.55;5.28;;;22.20;63.50;;;;;;5085347;28;20449;-71
2022/12/26 00:03:24;;;;;;;6.18;5.05;;;22.20;63.60;;;;;;5079056;28;20523;-71
2022/12/26 00:05:50;;;;;;;7.10;5.03;;;22.00;63.70;;;;;;5085759;28;20032;-71
2022/12/26 00:08:17;;;;;;;9.23;5.72;;;22.10;64.00;;;;;;5081739;28;20485;-70
2022/12/26 00:10:43;;;;;;;6.45;5.03;;;22.10;64.10;;;;;;5053444;28;20025;-70
2022/12/26 00:13:09;;;;;;;8.52;5.40;;;22.00;64.10;;;;;;5070538;28;20029;-70
2022/12/26 00:15:39;;;;;;;8.98;5.93;;;22.10;64.20;;;;;;5063582;28;20151;-70
2022/12/26 00:18:05;;;;;;;11.25;6.65;;;22.30;64.10;;;;;;5032558;28;20393;-71
2022/12/26 00:20:31;;;;;;;7.65;6.30;;;22.10;63.90;;;;;;5050088;28;20058;-70
2022/12/26 00:22:58;;;;;;;7.53;5.35;;;22.20;63.90;;;;;;5068729;28;20029;-70
2022/12/26 00:25:24;;;;;;;9.43;6.35;;;22.20;64.00;;;;;;5056618;28;20078;-71
2022/12/26 00:27:50;;;;;;;10.07;6.15;;;22.10;64.10;;;;;;5049565;28;20431;-71
2022/12/26 00:30:16;;;;;;;8.30;5.60;;;22.20;64.10;;;;;;5063335;28;20031;-71
2022/12/26 00:32:42;;;;;;;8.90;6.20;;;22.20;64.00;;;;;;5048798;28;20504;-70
2022/12/26 00:35:09;;;;;;;10.07;5.82;;;22.10;64.00;;;;;;5049223;28;20102;-71
2022/12/26 00:37:35;;;;;;;9.73;6.22;;;22.10;64.00;;;;;;5051794;28;20101;-71
2022/12/26 00:40:00;;;;;;;11.02;7.47;;;22.10;64.10;;;;;;5060137;28;20033;-71
2022/12/26 00:42:27;;;;;;;10.07;6.80;;;21.90;64.00;;;;;;5063998;28;20151;-70
2022/12/26 00:44:53;;;;;;;9.38;7.13;;;22.00;64.10;;;;;;5050548;28;20405;-70
2022/12/26 00:47:19;;;;;;;12.15;6.18;;;22.10;64.10;;;;;;5052332;28;20154;-71
2022/12/26 00:49:45;;;;;;;7.90;6.47;;;21.90;64.10;;;;;;5050295;28;20104;-70
2022/12/26 00:52:11;;;;;;;11.82;6.78;;;22.00;64.30;;;;;;5040666;28;20170;-71
2022/12/26 00:54:37;;;;;;;7.68;6.07;;;21.90;64.30;;;;;;5064611;28;20363;-71
2022/12/26 00:57:03;;;;;;;7.05;5.00;;;21.90;64.40;;;;;;5050188;28;20037;-71
2022/12/26 00:59:29;;;;;;;7.70;5.72;;;21.80;64.30;;;;;;5065490;28;20025;-71
2022/12/26 01:01:55;;;;;;;10.45;6.20;;;21.90;64.40;;;;;;5068172;28;20146;-71
2022/12/26 01:04:21;;;;;;;5.57;5.03;;;22.00;64.40;;;;;;5069466;28;20036;-71
2022/12/26 01:06:47;;;;;;;7.32;5.78;;;21.80;64.20;;;;;;5059894;28;20024;-71
2022/12/26 01:09:14;;;;;;;7.95;5.70;;;21.80;64.10;;;;;;5067769;28;20059;-71
2022/12/26 01:11:41;;;;;;;7.55;5.90;;;21.80;64.20;;;;;;5041374;28;20033;-71
2022/12/26 01:14:16;;;;;;;8.40;5.50;;;21.90;64.60;;;;;;5068974;28;20025;-71
2022/12/26 01:16:44;;;;;;;8.02;5.43;;;21.80;64.40;;;;;;5068458;28;20028;-71
2022/12/26 01:19:11;;;;;;;8.60;5.25;;;21.70;64.60;;;;;;5070104;28;20076;-70
2022/12/26 01:21:37;;;;;;;8.70;6.00;;;21.70;64.80;;;;;;5069977;28;20033;-70
2022/12/26 01:24:04;;;;;;;8.48;6.03;;;21.80;65.00;;;;;;5071179;28;20037;-71
2022/12/26 01:26:30;;;;;;;9.15;5.40;;;21.80;64.90;;;;;;5061187;28;20086;-71
2022/12/26 01:28:56;;;;;;;8.35;5.70;;;21.70;64.80;;;;;;5066939;28;20033;-71
2022/12/26 01:31:22;;;;;;;9.02;5.65;;;21.80;64.70;;;;;;5045255;28;20032;-71
2022/12/26 01:33:49;;;;;;;6.40;5.68;;;21.70;64.80;;;;;;5073277;28;20045;-70
2022/12/26 01:36:16;;;;;;;7.90;5.55;;;21.70;64.80;;;;;;5053997;28;20094;-71
2022/12/26 01:38:43;;;;;;;6.68;5.68;;;21.80;64.80;;;;;;5073550;28;20064;-71
2022/12/26 01:41:15;;;;;;;7.55;5.78;;;21.80;64.70;;;;;;5061305;28;20115;-71
2022/12/26 01:44:02;;;;;;;8.50;5.55;;;21.80;64.70;;;;;;5071724;28;20029;-71
2022/12/26 01:46:36;;;;;;;8.00;6.15;;;21.70;64.70;;;;;;5067814;28;20035;-70
2022/12/26 01:49:34;;;;;;;9.25;6.10;;;21.80;64.70;;;;;;5073526;28;20116;-71
2022/12/26 01:52:08;;;;;;;6.07;4.90;;;21.80;64.60;;;;;;5071364;28;20044;-71
2022/12/26 01:54:38;;;;;;;8.82;6.00;;;21.90;64.60;;;;;;5070922;28;20083;-71
2022/12/26 01:57:09;;;;;;;7.35;5.50;;;21.80;64.60;;;;;;5053973;28;20036;-70
2022/12/26 01:59:38;;;;;;;7.35;5.55;;;21.80;64.60;;;;;;5054455;28;20143;-71
2022/12/26 02:02:05;;;;;;;6.82;5.38;;;21.70;64.50;;;;;;5069573;28;20079;-71
2022/12/26 02:07:23;;;;;;;7.35;5.38;;;21.70;64.80;;;;;;5060235;28;20032;-71
2022/12/26 02:09:50;;;;;;;7.97;5.30;;;21.70;64.80;;;;;;5069538;28;20031;-70
2022/12/26 02:12:21;;;;;;;7.25;5.70;;;21.60;64.80;;;;;;5065686;28;20052;-71
2022/12/26 02:14:48;;;;;;;10.50;5.55;;;21.60;64.80;;;;;;5071439;28;20748;-70
2022/12/26 02:17:15;;;;;;;7.32;5.20;;;21.60;64.90;;;;;;5045811;28;20502;-71
2022/12/26 02:19:52;;;;;;;7.45;5.20;;;21.50;65.00;;;;;;5072690;28;20109;-71
2022/12/26 02:22:37;;;;;;;9.23;5.55;;;21.60;65.00;;;;;;5071092;28;20165;-71
2022/12/26 02:25:41;;;;;;;6.63;5.35;;;21.60;64.90;;;;;;5067983;28;20085;-70
2022/12/26 02:28:26;;;;;;;7.00;4.70;;;21.60;64.90;;;;;;5052461;28;20091;-70
2022/12/26 02:31:12;;;;;;;6.38;5.25;;;21.60;64.80;;;;;;5064915;28;20033;-70
2022/12/26 02:33:48;;;;;;;7.78;5.85;;;21.60;64.80;;;;;;5051490;28;20041;-71
2022/12/26 02:36:44;;;;;;;6.88;5.53;;;21.40;64.70;;;;;;5052015;28;20037;-71
2022/12/26 02:39:37;;;;;;;7.32;5.68;;;21.50;64.90;;;;;;5052290;28;20042;-71
2022/12/26 02:42:25;;;;;;;7.45;4.97;;;21.40;65.00;;;;;;5063864;28;20102;-70
2022/12/26 02:48:41;;;;;;;6.68;5.20;;;21.40;65.10;;;;;;4967003;28;20039;-71
2022/12/26 03:15:00;;;;;;;7.32;5.25;;;21.60;64.40;;;;;;4906116;29;20144;-70
2022/12/26 03:17:36;;;;;;;6.40;4.60;;;21.50;64.40;;;;;;4901095;29;20783;-71
2022/12/26 03:20:09;;;;;;;7.05;4.30;;;21.60;64.60;;;;;;4898015;29;20283;-71
2022/12/26 03:22:41;;;;;;;5.65;4.70;;;21.50;64.80;;;;;;4907600;29;20059;-71
2022/12/26 03:27:57;;;;;;;7.20;5.32;;;21.40;64.60;;;;;;4987433;28;20046;-71
2022/12/26 03:34:15;;;;;;;7.72;5.57;;;21.30;64.60;;;;;;4987180;28;20038;-70
2022/12/26 03:35:54;;;;;;;6.65;4.88;;;21.40;64.60;;;;;;4988272;28;20158;-71
2022/12/26 03:38:28;;;;;;;7.15;5.63;;;21.30;64.60;;;;;;4956103;28;20030;-70
2022/12/26 04:19:26;;;;;;;5.57;4.35;;;21.20;64.10;;;;;;4968420;28;20078;-71
2022/12/26 04:45:09;;;;;;;8.35;5.38;;;21.20;63.50;;;;;;4966947;28;20846;-71
2022/12/26 04:47:35;;;;;;;6.30;4.85;;;21.20;63.60;;;;;;4997025;28;20077;-70
2022/12/26 04:50:11;;;;;;;5.72;5.03;;;21.20;63.60;;;;;;5028030;28;20056;-71
2022/12/26 04:52:59;;;;;;;7.80;4.63;;;21.20;63.60;;;;;;5034875;28;20051;-71
2022/12/26 04:55:31;;;;;;;8.15;5.63;;;21.20;63.60;;;;;;5070615;28;20481;-71
2022/12/26 04:57:58;;;;;;;7.00;5.20;;;21.10;63.60;;;;;;5074634;28;20524;-71
2022/12/26 05:00:26;;;;;;;8.18;5.78;;;21.10;63.70;;;;;;5075629;28;20082;-71
2022/12/26 05:11:31;;;;;;;6.10;4.43;;;21.20;63.60;;;;;;5069230;28;20033;-71
2022/12/26 05:13:58;;;;;;;6.13;3.95;;;21.30;63.70;;;;;;5053299;28;20029;-71
2022/12/26 05:30:24;;;;;;;4.78;4.22;;;21.00;63.70;;;;;;5062509;28;20033;-71
2022/12/26 05:35:35;;;;;;;5.35;4.57;;;21.00;64.00;;;;;;5072682;28;20567;-71
2022/12/26 05:38:02;;;;;;;5.93;4.22;;;21.10;64.00;;;;;;5073027;28;20033;-71
2022/12/26 05:40:28;;;;;;;4.85;4.10;;;21.20;63.80;;;;;;5071867;28;21668;-71
2022/12/26 05:42:54;;;;;;;5.28;4.10;;;21.20;63.60;;;;;;5055081;28;20054;-72
2022/12/26 05:45:20;;;;;;;5.75;4.05;;;21.20;63.60;;;;;;5052818;28;20521;-70
2022/12/26 05:47:45;;;;;;;4.63;3.83;;;21.20;63.70;;;;;;5072098;28;20032;-71
2022/12/26 05:50:12;;;;;;;4.80;4.15;;;21.20;63.60;;;;;;5073255;28;20122;-71
2022/12/26 05:52:37;;;;;;;5.10;4.60;;;21.30;63.80;;;;;;5071657;28;20109;-71
2022/12/26 05:55:04;;;;;;;4.90;4.10;;;21.20;63.40;;;;;;5070163;28;20025;-71
2022/12/26 05:57:30;;;;;;;5.88;4.50;;;21.20;63.30;;;;;;5054980;28;20040;-71
2022/12/26 05:59:56;;;;;;;6.50;4.60;;;21.40;63.30;;;;;;5052463;28;20029;-71
2022/12/26 06:02:21;;;;;;;5.75;4.20;;;21.30;63.00;;;;;;5068363;28;20034;-71
2022/12/26 06:04:47;;;;;;;4.63;4.22;;;21.30;62.90;;;;;;5052676;28;20043;-70
2022/12/26 06:07:13;;;;;;;5.00;4.15;;;21.30;63.20;;;;;;5060631;28;20454;-71
2022/12/26 06:09:39;;;;;;;5.53;4.30;;;21.30;63.20;;;;;;5072878;28;20056;-71
2022/12/26 06:12:05;;;;;;;7.13;5.07;;;21.30;63.40;;;;;;5055597;28;20132;-71
2022/12/26 06:14:31;;;;;;;6.70;5.32;;;21.20;63.30;;;;;;5052530;28;20429;-71
2022/12/26 06:16:57;;;;;;;5.45;4.57;;;21.10;63.40;;;;;;5054478;28;20037;-71
2022/12/26 06:19:23;;;;;;;5.70;5.13;;;21.20;63.30;;;;;;5068708;28;20090;-71
2022/12/26 06:21:49;;;;;;;5.97;4.97;;;21.20;63.40;;;;;;5071137;28;20040;-73
2022/12/26 06:24:15;;;;;;;5.20;4.32;;;21.10;63.50;;;;;;5073072;28;20054;-71
2022/12/26 06:26:41;;;;;;;6.80;5.57;;;21.10;63.30;;;;;;5063127;28;20035;-72
2022/12/26 06:29:08;;;;;;;6.90;5.43;;;21.10;63.40;;;;;;5052659;28;20037;-68
2022/12/26 06:31:34;;;;;;;6.38;4.63;;;21.10;63.50;;;;;;5052232;28;20025;-71
2022/12/26 06:34:00;;;;;;;5.75;4.30;;;21.20;63.50;;;;;;5052439;28;20043;-70
2022/12/26 06:36:27;;;;;;;7.25;4.90;;;21.20;63.70;;;;;;5058457;28;20103;-70
2022/12/26 06:38:54;;;;;;;5.15;4.13;;;21.20;63.30;;;;;;5051920;28;20109;-70
2022/12/26 06:41:22;;;;;;;5.32;4.50;;;21.10;63.50;;;;;;5055275;28;20032;-69
2022/12/26 06:43:48;;;;;;;5.35;4.85;;;21.20;63.40;;;;;;5053338;28;20386;-68
2022/12/26 06:46:17;;;;;;;5.60;5.07;;;21.20;63.60;;;;;;5062327;28;20066;-66
2022/12/26 06:48:43;;;;;;;7.60;4.90;;;21.20;64.20;;;;;;5056538;28;20044;-69
2022/12/26 06:51:15;;;;;;;5.38;4.88;;;21.10;64.50;;;;;;5056236;28;20036;-70
2022/12/26 06:53:42;;;;;;;5.38;4.88;;;21.20;65.10;;;;;;5056309;28;20024;-70
2022/12/26 06:56:20;;;;;;;5.53;4.82;;;21.20;64.90;;;;;;5061850;28;20036;-70
2022/12/26 06:58:47;;;;;;;6.60;4.72;;;21.30;64.90;;;;;;5037249;28;20032;-71
2022/12/26 07:01:15;;;;;;;5.68;4.80;;;21.30;64.90;;;;;;5044161;28;20021;-69
2022/12/26 07:03:43;;;;;;;5.13;3.50;;;21.20;58.40;;;;;;5052187;28;20037;-69
2022/12/26 07:06:20;;;;;;;6.05;3.92;;;21.10;53.90;;;;;;5051650;28;20028;-69
2022/12/26 07:08:47;;;;;;;5.07;4.15;;;21.20;50.30;;;;;;5056139;28;20055;-71
2022/12/26 07:11:14;;;;;;;5.38;4.45;;;21.30;49.20;;;;;;5077467;28;20036;-71
2022/12/26 07:13:42;;;;;;;4.38;3.50;;;21.30;48.90;;;;;;5091489;28;20443;-70
2022/12/26 07:16:09;;;;;;;4.40;4.00;;;21.40;50.30;;;;;;5094381;28;20028;-71
2022/12/26 07:18:36;;;;;;;4.78;4.05;;;21.40;48.30;;;;;;5077840;28;20055;-71
2022/12/26 07:21:07;;;;;;;4.20;3.35;;;21.50;48.20;;;;;;5080250;28;20067;-68
2022/12/26 07:23:34;;;;;;;8.10;3.33;;;21.40;48.00;;;;;;5112309;28;20032;-69
2022/12/26 07:26:00;;;;;;;4.53;3.97;;;21.60;47.10;;;;;;5112226;28;20045;-69
2022/12/26 07:28:26;;;;;;;6.55;5.95;;;21.60;46.40;;;;;;5094587;28;20571;-71
2022/12/26 07:30:53;;;;;;;9.50;7.57;;;21.70;48.30;;;;;;5070817;28;20032;-70
2022/12/26 07:33:19;;;;;;;7.85;5.30;;;21.80;49.10;;;;;;5070780;28;20036;-67
2022/12/26 07:35:45;;;;;;;4.63;4.20;;;21.80;60.10;;;;;;5073534;28;20037;-68
2022/12/26 07:38:32;;;;;;;5.50;4.10;;;22.00;60.80;;;;;;5070115;28;20039;-68
2022/12/26 07:40:58;;;;;;;5.38;3.80;;;22.10;61.80;;;;;;5020419;28;20041;-69
2022/12/26 07:43:25;;;;;;;6.45;5.10;;;22.30;61.60;;;;;;5037654;28;20037;-68
2022/12/26 07:45:51;;;;;;;8.43;4.50;;;22.30;61.10;;;;;;5047717;28;20159;-67
2022/12/26 07:48:17;;;;;;;6.50;3.97;;;22.50;60.50;;;;;;5049011;28;20367;-68
2022/12/26 07:50:46;;;;;;;5.38;4.05;;;22.50;59.90;;;;;;5045637;28;20064;-68
2022/12/26 07:53:15;;;;;;;7.07;4.43;;;22.40;59.10;;;;;;5016050;28;20068;-70
2022/12/26 07:55:41;;;;;;;5.40;4.35;;;22.50;58.90;;;;;;5028640;28;20045;-69
2022/12/26 07:58:07;;;;;;;4.35;3.50;;;22.60;58.30;;;;;;5028801;28;20492;-68
2022/12/26 08:00:33;;;;;;;4.82;4.05;;;22.60;57.80;;;;;;5030488;28;20137;-68
2022/12/26 08:02:58;;;;;;;4.88;4.00;;;22.80;58.70;;;;;;5036332;28;20041;-68
2022/12/26 08:05:24;;;;;;;6.07;3.95;;;22.70;58.80;;;;;;5037729;28;20536;-68
2022/12/26 08:07:50;;;;;;;5.53;4.57;;;22.70;57.80;;;;;;5048065;28;20068;-67
2022/12/26 08:10:17;;;;;;;5.03;3.80;;;22.80;57.50;;;;;;5048538;28;20037;-67
2022/12/26 08:12:43;;;;;;;7.07;4.72;;;22.80;57.20;;;;;;5083381;28;20385;-67
2022/12/26 08:15:11;;;;;;;6.78;4.68;;;22.90;57.30;;;;;;5091352;28;20500;-69
2022/12/26 08:17:37;;;;;;;5.63;5.00;;;22.80;56.80;;;;;;5081305;28;20025;-68
2022/12/26 08:20:04;;;;;;;5.57;4.97;;;22.80;56.60;;;;;;5071890;28;20039;-68
2022/12/26 08:22:30;;;;;;;6.93;5.82;;;22.90;56.50;;;;;;5071292;28;20035;-69
2022/12/26 08:24:55;;;;;;;8.88;7.30;;;22.70;57.20;;;;;;5070886;28;20029;-67
2022/12/26 08:27:21;;;;;;;9.43;8.38;;;22.60;58.30;;;;;;5076775;28;20114;-69
2022/12/26 08:29:47;;;;;;;10.43;6.82;;;22.50;59.10;;;;;;5083334;28;20105;-68
2022/12/26 08:32:14;;;;;;;9.15;7.00;;;22.40;59.30;;;;;;5086817;28;20430;-66
2022/12/26 08:34:40;;;;;;;7.95;6.57;;;22.40;59.90;;;;;;5086430;28;20151;-67
2022/12/26 08:37:06;;;;;;;10.52;6.93;;;22.40;60.50;;;;;;5094695;28;20131;-70
2022/12/26 08:39:32;;;;;;;7.80;6.35;;;22.30;60.80;;;;;;5074900;28;20485;-68
2022/12/26 08:41:58;;;;;;;7.50;5.90;;;22.20;61.20;;;;;;5075508;28;20036;-68
2022/12/26 08:44:23;;;;;;;8.07;5.68;;;22.20;61.30;;;;;;5081665;28;20024;-67
2022/12/26 08:46:49;;;;;;;7.85;5.35;;;22.20;61.20;;;;;;5094979;28;20031;-69
2022/12/26 08:49:16;;;;;;;7.55;6.28;;;22.10;61.10;;;;;;5095842;28;20028;-67
2022/12/26 08:51:42;;;;;;;7.68;5.70;;;22.10;61.10;;;;;;5095984;28;20065;-67
2022/12/26 08:54:08;;;;;;;7.22;5.10;;;22.20;61.20;;;;;;5096297;28;20032;-67
2022/12/26 08:56:34;;;;;;;8.68;5.63;;;22.10;61.30;;;;;;5095881;28;20036;-67
2022/12/26 08:59:00;;;;;;;6.70;5.20;;;22.00;61.40;;;;;;5095740;28;20405;-67
2022/12/26 09:01:28;;;;;;;8.13;6.05;;;21.90;61.90;;;;;;5094403;28;20032;-68
2022/12/26 09:04:00;;;;;;;7.10;5.30;;;21.90;61.90;;;;;;5095893;28;20040;-67
2022/12/26 09:06:28;;;;;;;8.77;5.93;;;21.90;62.10;;;;;;5078828;28;20032;-67
2022/12/26 09:08:54;;;;;;;7.13;5.50;;;21.80;62.20;;;;;;5085543;28;20529;-68
2022/12/26 09:11:25;;;;;;;7.75;5.32;;;21.80;62.00;;;;;;5074916;28;20070;-67
2022/12/26 09:13:52;;;;;;;7.25;5.07;;;21.70;62.10;;;;;;5075067;28;20028;-67
2022/12/26 09:16:22;;;;;;;6.63;5.55;;;21.70;62.70;;;;;;5075241;28;20385;-67
2022/12/26 09:18:53;;;;;;;6.78;5.22;;;21.70;62.30;;;;;;5075181;28;20097;-67
2022/12/26 09:21:19;;;;;;;7.03;6.05;;;21.50;62.30;;;;;;5070522;28;20029;-68
2022/12/26 09:23:45;;;;;;;7.53;5.75;;;21.70;62.30;;;;;;5055344;28;20025;-68
2022/12/26 09:26:14;;;;;;;7.10;5.38;;;21.60;62.70;;;;;;5055140;28;20112;-68
2022/12/26 09:28:40;;;;;;;8.63;5.75;;;21.60;62.20;;;;;;5054522;28;20037;-67
2022/12/26 09:31:10;;;;;;;7.72;6.03;;;21.60;62.30;;;;;;5055105;28;20393;-68
2022/12/26 09:33:37;;;;;;;8.43;6.18;;;21.60;62.40;;;;;;5054544;28;20135;-67
2022/12/26 09:36:10;;;;;;;8.10;6.75;;;21.60;62.40;;;;;;5042444;28;20493;-67
2022/12/26 09:38:36;;;;;;;7.63;5.25;;;21.60;62.70;;;;;;5074572;28;20024;-67
2022/12/26 09:41:27;;;;;;;8.68;5.97;;;21.60;62.90;;;;;;5074588;28;20024;-67
2022/12/26 09:44:16;;;;;;;8.30;5.55;;;21.60;62.50;;;;;;5040015;28;20044;-67
2022/12/26 09:47:07;;;;;;;8.02;6.40;;;21.80;62.40;;;;;;5074454;28;20060;-67
2022/12/26 09:49:36;;;;;;;9.02;6.55;;;21.70;62.20;;;;;;5074684;28;20119;-67
2022/12/26 09:52:16;;;;;;;10.07;7.57;;;21.70;62.00;;;;;;5074142;28;20043;-67
2022/12/26 09:54:51;;;;;;;9.45;7.25;;;21.70;62.30;;;;;;5074447;28;20086;-68
2022/12/26 09:57:25;;;;;;;9.40;7.32;;;21.60;62.20;;;;;;5073885;28;20032;-67
2022/12/26 09:59:55;;;;;;;9.70;7.55;;;21.60;62.20;;;;;;5074333;28;20021;-67
2022/12/26 10:02:24;;;;;;;9.60;7.25;;;21.70;62.40;;;;;;5072984;28;20083;-67
2022/12/26 10:04:51;;;;;;;8.50;6.85;;;21.70;62.40;;;;;;5074042;28;20036;-67
2022/12/26 10:07:24;;;;;;;8.95;7.40;;;21.70;62.40;;;;;;5058979;28;20471;-67
2022/12/26 10:10:09;;;;;;;9.27;7.10;;;21.80;62.30;;;;;;5054089;28;20390;-67
2022/12/26 10:12:39;;;;;;;9.95;7.38;;;21.80;62.20;;;;;;5053810;28;20120;-67
2022/12/26 10:15:17;;;;;;;8.43;6.72;;;21.80;62.10;;;;;;5054072;28;20037;-67
2022/12/26 10:18:14;;;;;;;9.13;6.80;;;21.80;62.10;;;;;;5054007;28;20060;-67
2022/12/26 10:21:18;;;;;;;9.40;7.03;;;21.80;62.00;;;;;;4962018;28;20050;-67
2022/12/26 10:23:50;;;;;;;8.63;6.60;;;21.80;61.80;;;;;;4972632;28;20507;-67
2022/12/26 10:26:20;;;;;;;9.10;6.47;;;21.80;61.90;;;;;;4972618;28;20046;-67
2022/12/26 10:28:59;;;;;;;8.60;6.07;;;22.00;61.90;;;;;;4970759;28;20046;-67
2022/12/26 10:31:41;;;;;;;7.20;5.85;;;21.90;61.80;;;;;;4972674;28;20603;-67
2022/12/26 10:34:25;;;;;;;8.45;6.13;;;21.90;61.80;;;;;;4972191;28;20045;-68
2022/12/26 10:37:06;;;;;;;;;;;22.00;61.60;;;;;;4972973;28;20067;-67
2022/12/26 10:39:52;;;;;;;9.38;6.15;;;22.00;61.60;;;;;;4955374;28;19910;-68
2022/12/26 10:42:32;;;;;;;7.50;5.53;;;21.90;61.70;;;;;;4971573;28;20417;-68
2022/12/26 10:44:59;;;;;;;5.97;5.13;;;21.90;61.70;;;;;;4955412;28;20051;-68
2022/12/26 10:47:38;;;;;;;7.13;5.45;;;22.00;61.60;;;;;;4952053;28;20035;-67
2022/12/26 10:50:05;;;;;;;6.90;5.18;;;21.90;61.60;;;;;;4951563;28;20118;-67
2022/12/26 10:52:38;;;;;;;6.43;5.10;;;21.90;61.20;;;;;;4954451;28;20050;-67
2022/12/26 10:55:04;;;;;;;8.00;6.13;;;22.00;61.40;;;;;;4951891;28;20035;-68
2022/12/26 10:57:35;;;;;;;8.20;5.60;;;21.90;60.90;;;;;;4978088;28;20049;-68
2022/12/26 11:00:12;;;;;;;6.40;5.03;;;21.90;61.00;;;;;;5051818;28;20091;-67
2022/12/26 11:02:38;;;;;;;6.90;5.18;;;21.90;61.10;;;;;;5052051;28;20032;-67
2022/12/26 11:05:13;;;;;;;8.68;4.97;;;22.00;61.00;;;;;;5051821;28;20466;-67
2022/12/26 11:07:53;;;;;;;7.22;5.63;;;21.90;61.00;;;;;;5073720;28;20067;-67
2022/12/26 11:10:21;;;;;;;8.13;5.15;;;21.80;61.00;;;;;;5072584;28;20021;-67
2022/12/26 11:12:55;;;;;;;5.97;5.18;;;21.90;61.10;;;;;;5072402;28;20047;-67
2022/12/26 11:15:33;;;;;;;7.70;5.07;;;21.80;61.10;;;;;;5073029;28;20025;-68
2022/12/26 11:18:21;;;;;;;7.82;4.53;;;21.80;61.20;;;;;;5072424;28;20032;-68
2022/12/26 11:20:48;;;;;;;6.03;4.50;;;21.80;61.00;;;;;;5058426;28;20052;-67
2022/12/26 11:23:30;;;;;;;6.40;5.00;;;21.90;60.90;;;;;;5034769;28;20162;-67
2022/12/26 11:25:59;;;;;;;6.88;5.13;;;21.80;60.70;;;;;;5034921;28;20048;-67
2022/12/26 11:28:30;;;;;;;6.55;5.22;;;21.80;60.80;;;;;;5052121;28;20111;-68
2022/12/26 11:30:56;;;;;;;5.97;4.93;;;21.90;60.80;;;;;;5052397;28;20536;-68
2022/12/26 11:33:32;;;;;;;7.28;5.40;;;21.90;60.30;;;;;;5055145;28;20036;-67
2022/12/26 11:36:06;;;;;;;9.07;5.43;;;21.90;59.90;;;;;;5053293;28;20025;-68
2022/12/26 11:38:43;;;;;;;8.18;5.53;;;22.00;60.50;;;;;;5071732;28;20035;-69
2022/12/26 11:41:30;;;;;;;17.88;7.00;;;21.80;54.00;;;;;;5071388;28;20032;-69
2022/12/26 11:44:08;;;;;;;5.03;3.40;;;22.10;58.20;;;;;;5071254;28;20029;-70
2022/12/26 11:46:55;;;;;;;5.38;4.32;;;22.40;49.50;;;;;;5070889;28;20070;-70
2022/12/26 11:49:31;;;;;;;18.73;5.13;;;22.60;50.40;;;;;;5066376;28;20040;-69
2022/12/26 11:51:58;;;;;;;5.72;4.25;;;22.70;53.70;;;;;;5034061;28;20021;-70
2022/12/26 11:54:30;;;;;;;4.85;3.92;;;22.90;56.30;;;;;;5033303;28;20033;-70
2022/12/26 11:57:17;;;;;;;17.92;6.72;;;23.10;52.60;;;;;;5050051;28;20037;-68
2022/12/26 11:59:44;;;;;;;16.70;5.35;;;23.40;50.50;;;;;;5065677;28;20085;-69
2022/12/26 12:02:23;;;;;;;11.48;5.15;;;23.70;55.20;;;;;;5062016;28;20036;-68
2022/12/26 12:04:52;;;;;;;12.18;4.95;;;24.10;54.20;;;;;;5050306;28;20494;-69
2022/12/26 12:07:53;;;;;;;8.68;6.60;;;24.50;54.10;;;;;;5053887;28;20446;-67
2022/12/26 12:10:30;;;;;;;8.35;5.75;;;24.80;54.00;;;;;;5009146;28;20050;-67
2022/12/26 12:13:24;;;;;;;6.22;5.63;;;24.80;50.60;;;;;;4989093;28;20735;-67
2022/12/26 12:16:11;;;;;;;6.80;4.63;;;24.70;49.40;;;;;;4989035;28;20412;-69
2022/12/26 12:19:07;;;;;;;6.38;4.97;;;24.70;50.80;;;;;;5004649;28;20610;-68
2022/12/26 12:21:50;;;;;;;8.95;5.70;;;24.70;48.50;;;;;;5007297;28;20034;-67
2022/12/26 12:24:55;;;;;;;5.90;4.93;;;24.70;48.90;;;;;;5008509;28;20447;-68
2022/12/26 12:27:36;;;;;;;7.10;5.35;;;24.50;50.50;;;;;;4931256;29;20071;-68
2022/12/26 12:30:44;;;;;;;6.88;5.10;;;24.50;52.80;;;;;;4929748;29;20409;-67
2022/12/26 12:33:47;;;;;;;8.13;6.10;;;24.40;52.30;;;;;;4855423;29;20055;-68
2022/12/26 12:36:35;;;;;;;9.18;5.50;;;24.10;53.60;;;;;;4856062;29;20077;-67
2022/12/26 12:39:33;;;;;;;7.93;4.80;;;24.00;54.90;;;;;;4855121;29;20044;-68
2022/12/26 12:42:23;;;;;;;6.63;5.50;;;23.80;55.20;;;;;;4898136;29;20052;-68
2022/12/26 12:45:26;;;;;;;11.95;6.35;;;23.80;54.90;;;;;;4898449;29;20152;-68
2022/12/26 12:48:09;;;;;;;6.97;5.88;;;23.80;53.30;;;;;;4911652;29;20132;-68
2022/12/26 12:51:19;;;;;;;5.05;4.47;;;23.60;56.70;;;;;;4911473;29;20078;-68
2022/12/26 12:54:19;;;;;;;7.55;5.72;;;23.60;55.90;;;;;;4840025;29;20058;-68
2022/12/26 12:56:48;;;;;;;7.25;5.50;;;23.50;57.60;;;;;;4820634;29;20592;-67
2022/12/26 12:59:41;;;;;;;7.68;5.90;;;23.40;57.30;;;;;;4817533;29;20115;-67
2022/12/26 13:02:47;;;;;;;8.32;6.13;;;23.50;57.80;;;;;;4825992;29;20069;-67
2022/12/26 13:05:31;;;;;;;9.50;5.50;;;23.50;62.20;;;;;;4823119;29;20496;-68
2022/12/26 13:08:21;;;;;;;6.85;6.15;;;23.60;62.00;;;;;;4837312;29;20062;-67
2022/12/26 13:10:59;;;;;;;8.05;6.28;;;23.80;60.00;;;;;;4875696;29;20506;-67
2022/12/26 13:13:58;;;;;;;5.60;5.05;;;23.80;59.30;;;;;;4874259;29;20037;-66
2022/12/26 13:16:29;;;;;;;7.07;5.25;;;23.60;59.20;;;;;;4855576;29;20474;-66
2022/12/26 13:19:00;;;;;;;8.52;6.40;;;23.60;56.90;;;;;;4871023;29;20475;-66
2022/12/26 13:21:30;;;;;;;7.43;5.97;;;23.60;56.80;;;;;;4877487;29;20037;-66
2022/12/26 13:26:49;;;;;;;7.70;6.30;;;23.50;56.00;;;;;;4879687;29;20100;-66
2022/12/26 13:29:30;;;;;;;8.23;6.43;;;23.50;57.80;;;;;;4895664;29;20771;-66
2022/12/26 13:32:00;;;;;;;9.02;6.63;;;23.40;57.50;;;;;;4953028;28;20035;-66
2022/12/26 13:34:27;;;;;;;8.63;7.05;;;23.20;57.10;;;;;;4953155;28;20043;-66
2022/12/26 13:36:58;;;;;;;11.00;7.45;;;23.20;58.50;;;;;;4979886;28;20084;-66
2022/12/26 13:39:31;;;;;;;8.93;6.80;;;23.20;59.30;;;;;;4991804;28;20030;-67
2022/12/26 13:44:49;;;;;;;9.57;7.32;;;23.00;59.40;;;;;;4991653;28;20077;-67
2022/12/26 13:47:36;;;;;;;9.25;7.03;;;23.10;59.50;;;;;;4975215;28;20490;-66
2022/12/26 13:50:39;;;;;;;13.40;8.40;;;23.20;58.20;;;;;;4956551;28;20097;-66
2022/12/26 13:53:24;;;;;;;12.05;7.45;;;23.20;58.20;;;;;;5018919;28;20040;-66
2022/12/26 13:55:56;;;;;;;12.73;7.13;;;23.10;59.10;;;;;;5073475;28;20055;-66
2022/12/26 13:58:33;;;;;;;13.75;8.07;;;23.10;59.70;;;;;;5073190;28;20036;-66
2022/12/26 14:01:25;;;;;;;11.55;7.70;;;23.00;60.00;;;;;;5041838;28;20094;-65
2022/12/26 14:03:59;;;;;;;10.07;8.80;;;23.00;59.30;;;;;;5053662;28;20056;-66
2022/12/26 14:06:59;;;;;;;12.05;8.38;;;23.00;60.00;;;;;;5052920;28;20373;-66
2022/12/26 14:09:43;;;;;;;12.95;8.65;;;22.90;59.10;;;;;;5052178;28;20053;-66
2022/12/26 14:12:34;;;;;;;12.45;8.73;;;23.00;60.90;;;;;;5051847;28;20076;-66
2022/12/26 14:15:21;;;;;;;14.15;9.05;;;23.00;61.10;;;;;;5051929;28;20033;-66
2022/12/26 14:18:17;;;;;;;16.17;9.27;;;23.00;61.10;;;;;;5056284;28;20032;-66
2022/12/26 14:20:54;;;;;;;14.02;9.13;;;23.10;61.30;;;;;;5071680;28;20116;-66
2022/12/26 14:23:41;;;;;;;12.40;9.50;;;23.10;61.00;;;;;;5036222;28;20073;-66
2022/12/26 14:26:13;;;;;;;16.33;9.82;;;23.20;60.60;;;;;;5071357;28;20378;-66
2022/12/26 14:28:42;;;;;;;12.23;8.93;;;23.10;60.40;;;;;;5068063;28;20053;-66
2022/12/26 14:31:52;;;;;;;13.52;8.63;;;23.10;60.70;;;;;;5067180;28;20484;-66
2022/12/26 14:34:42;;;;;;;13.32;9.10;;;23.10;61.10;;;;;;4971241;28;20058;-66
2022/12/26 14:37:28;;;;;;;11.85;9.02;;;23.00;60.90;;;;;;4970940;28;20038;-66
2022/12/26 14:40:15;;;;;;;12.55;8.95;;;23.00;61.00;;;;;;4945672;29;20095;-66
2022/12/26 14:43:12;;;;;;;11.80;8.57;;;23.00;61.00;;;;;;4947965;28;20043;-67
2022/12/26 14:45:42;;;;;;;13.20;9.10;;;23.10;61.70;;;;;;4935543;29;20040;-66
2022/12/26 14:48:28;;;;;;;14.18;9.35;;;23.10;61.20;;;;;;4951355;28;20031;-66
2022/12/26 14:51:03;;;;;;;17.98;9.98;;;23.20;61.50;;;;;;4913130;29;20055;-66
2022/12/26 14:53:33;;;;;;;11.85;8.85;;;23.10;61.60;;;;;;4913288;29;20047;-66
2022/12/26 14:56:14;;;;;;;13.60;9.13;;;23.00;61.80;;;;;;4878408;29;20063;-66
2022/12/26 14:58:44;;;;;;;12.40;9.00;;;23.00;61.90;;;;;;4870286;29;20642;-66
2022/12/26 15:01:19;;;;;;;10.93;8.45;;;23.00;62.00;;;;;;4900889;29;20041;-66
2022/12/26 15:04:09;;;;;;;13.98;9.25;;;23.00;62.10;;;;;;4894803;29;20069;-66
2022/12/26 15:07:02;;;;;;;12.27;8.90;;;23.20;62.20;;;;;;4969899;28;20388;-66
2022/12/26 15:09:46;;;;;;;15.40;10.40;;;23.20;61.80;;;;;;5007388;28;20568;-66
2022/12/26 15:12:24;;;;;;;13.15;9.90;;;23.20;61.40;;;;;;5028973;28;20040;-66
2022/12/26 15:15:21;;;;;;;13.43;8.32;;;23.10;61.60;;;;;;5028598;28;20045;-68
2022/12/26 15:18:01;;;;;;;14.48;8.75;;;23.20;61.70;;;;;;5028870;28;20140;-67
2022/12/26 15:20:57;;;;;;;16.85;9.10;;;23.20;62.30;;;;;;5029025;28;20037;-67
2022/12/26 15:24:09;;;;;;;12.27;8.55;;;23.20;64.80;;;;;;5027215;28;20049;-67
2022/12/26 15:27:16;;;;;;;11.32;8.55;;;23.10;67.00;;;;;;5016173;28;20124;-67
2022/12/26 15:30:11;;;;;;;14.13;9.20;;;23.10;64.00;;;;;;5038116;28;20249;-67